sensor_id;sensor_type;location;lat;lon;timestamp;pressure;altitude;pressure_sealevel;temperature;humidity
61109;BME280;46995;55.740;37.402;2023-12-20T00:01:50;97744.59;;;3.11;94.42
61109;BME280;46995;55.740;37.402;2023-12-20T00:04:15;97742.94;;;3.10;94.10
61109;BME280;46995;55.740;37.402;2023-12-20T00:06:47;97747.09;;;3.12;94.36
61109;BME280;46995;55.740;37.402;2023-12-20T00:09:13;97744.19;;;3.15;93.96
61109;BME280;46995;55.740;37.402;2023-12-20T00:11:39;97753.19;;;3.22;94.14
61109;BME280;46995;55.740;37.402;2023-12-20T00:14:07;97753.75;;;3.35;94.42
61109;BME280;46995;55.740;37.402;2023-12-20T00:16:33;97755.09;;;3.51;94.32
61109;BME280;46995;55.740;37.402;2023-12-20T00:19:02;97763.78;;;3.61;94.26
61109;BME280;46995;55.740;37.402;2023-12-20T00:21:27;97761.88;;;3.72;94.08
61109;BME280;46995;55.740;37.402;2023-12-20T00:23:53;97758.63;;;3.80;93.97
61109;BME280;46995;55.740;37.402;2023-12-20T00:26:19;97762.34;;;3.87;93.92
61109;BME280;46995;55.740;37.402;2023-12-20T00:28:44;97750.69;;;3.91;93.50
61109;BME280;46995;55.740;37.402;2023-12-20T00:31:10;97754.66;;;3.95;93.96
61109;BME280;46995;55.740;37.402;2023-12-20T00:33:36;97752.59;;;3.99;93.50
61109;BME280;46995;55.740;37.402;2023-12-20T00:36:02;97759.34;;;4.01;93.46
61109;BME280;46995;55.740;37.402;2023-12-20T00:38:28;97768.56;;;4.05;93.39
61109;BME280;46995;55.740;37.402;2023-12-20T00:40:54;97756.06;;;4.09;93.45
61109;BME280;46995;55.740;37.402;2023-12-20T00:43:20;97763.34;;;4.05;93.40
61109;BME280;46995;55.740;37.402;2023-12-20T00:48:22;97758.94;;;4.06;93.58
61109;BME280;46995;55.740;37.402;2023-12-20T00:50:48;97764.88;;;4.08;93.61
61109;BME280;46995;55.740;37.402;2023-12-20T00:53:14;97762.09;;;4.09;93.37
61109;BME280;46995;55.740;37.402;2023-12-20T00:55:40;97759.25;;;4.12;93.40
61109;BME280;46995;55.740;37.402;2023-12-20T00:58:05;97753.31;;;4.10;93.21
61109;BME280;46995;55.740;37.402;2023-12-20T01:00:31;97756.75;;;4.11;93.25
61109;BME280;46995;55.740;37.402;2023-12-20T01:02:57;97756.22;;;4.07;93.27
61109;BME280;46995;55.740;37.402;2023-12-20T01:05:23;97742.44;;;4.05;93.17
61109;BME280;46995;55.740;37.402;2023-12-20T01:07:49;97744.09;;;4.06;93.26
61109;BME280;46995;55.740;37.402;2023-12-20T01:10:14;97744.34;;;4.03;92.88
61109;BME280;46995;55.740;37.402;2023-12-20T01:12:40;97730.88;;;3.98;93.09
61109;BME280;46995;55.740;37.402;2023-12-20T01:15:06;97728.84;;;3.92;93.53
61109;BME280;46995;55.740;37.402;2023-12-20T01:17:35;97723.19;;;3.87;93.39
61109;BME280;46995;55.740;37.402;2023-12-20T01:20:01;97724.97;;;3.87;93.46
61109;BME280;46995;55.740;37.402;2023-12-20T01:22:27;97714.38;;;3.88;93.71
61109;BME280;46995;55.740;37.402;2023-12-20T01:24:53;97732.25;;;3.93;93.71
61109;BME280;46995;55.740;37.402;2023-12-20T01:27:21;97730.47;;;3.93;93.39
61109;BME280;46995;55.740;37.402;2023-12-20T01:29:47;97732.81;;;3.87;93.17
61109;BME280;46995;55.740;37.402;2023-12-20T01:32:16;97730.03;;;3.78;93.40
61109;BME280;46995;55.740;37.402;2023-12-20T01:34:42;97738.25;;;3.74;93.55
61109;BME280;46995;55.740;37.402;2023-12-20T01:37:10;97745.13;;;3.75;93.65
61109;BME280;46995;55.740;37.402;2023-12-20T01:39:39;97734.41;;;3.78;93.90
61109;BME280;46995;55.740;37.402;2023-12-20T01:42:05;97731.56;;;3.81;93.59
61109;BME280;46995;55.740;37.402;2023-12-20T01:44:30;97720.16;;;3.82;93.61
61109;BME280;46995;55.740;37.402;2023-12-20T01:46:56;97705.69;;;3.78;93.47
61109;BME280;46995;55.740;37.402;2023-12-20T01:49:22;97696.19;;;3.67;93.77
61109;BME280;46995;55.740;37.402;2023-12-20T01:51:49;97697.97;;;3.57;93.47
61109;BME280;46995;55.740;37.402;2023-12-20T01:54:15;97699.91;;;3.55;93.74
61109;BME280;46995;55.740;37.402;2023-12-20T01:56:41;97704.44;;;3.63;94.13
61109;BME280;46995;55.740;37.402;2023-12-20T01:59:07;97704.59;;;3.71;93.78
61109;BME280;46995;55.740;37.402;2023-12-20T02:01:34;97700.47;;;3.78;93.84
61109;BME280;46995;55.740;37.402;2023-12-20T02:04:01;97697.63;;;3.81;93.57
61109;BME280;46995;55.740;37.402;2023-12-20T02:06:29;97696.25;;;3.87;93.62
61109;BME280;46995;55.740;37.402;2023-12-20T02:08:55;97700.09;;;3.92;93.64
61109;BME280;46995;55.740;37.402;2023-12-20T02:11:21;97694.59;;;3.95;93.49
61109;BME280;46995;55.740;37.402;2023-12-20T02:13:47;97676.44;;;3.94;93.53
61109;BME280;46995;55.740;37.402;2023-12-20T02:16:12;97674.13;;;3.91;93.35
61109;BME280;46995;55.740;37.402;2023-12-20T02:18:38;97670.97;;;3.87;93.45
61109;BME280;46995;55.740;37.402;2023-12-20T02:21:04;97682.78;;;3.91;93.21
61109;BME280;46995;55.740;37.402;2023-12-20T02:23:31;97680.84;;;3.93;93.33
61109;BME280;46995;55.740;37.402;2023-12-20T02:25:56;97691.69;;;3.98;93.41
61109;BME280;46995;55.740;37.402;2023-12-20T02:28:22;97688.84;;;4.01;93.03
61109;BME280;46995;55.740;37.402;2023-12-20T02:30:48;97684.28;;;4.03;93.12
61109;BME280;46995;55.740;37.402;2023-12-20T02:33:14;97678.81;;;4.06;93.06
61109;BME280;46995;55.740;37.402;2023-12-20T02:35:40;97679.75;;;4.05;92.96
61109;BME280;46995;55.740;37.402;2023-12-20T02:38:08;97684.03;;;4.06;93.02
61109;BME280;46995;55.740;37.402;2023-12-20T02:40:34;97684.97;;;4.05;92.79
61109;BME280;46995;55.740;37.402;2023-12-20T02:43:00;97675.66;;;4.03;92.90
61109;BME280;46995;55.740;37.402;2023-12-20T02:45:26;97678.09;;;4.04;92.54
61109;BME280;46995;55.740;37.402;2023-12-20T02:47:51;97681.41;;;4.06;92.56
61109;BME280;46995;55.740;37.402;2023-12-20T02:50:17;97677.69;;;4.09;92.69
61109;BME280;46995;55.740;37.402;2023-12-20T02:52:44;97688.84;;;4.11;92.71
61109;BME280;46995;55.740;37.402;2023-12-20T02:55:10;97685.28;;;4.12;92.71
61109;BME280;46995;55.740;37.402;2023-12-20T02:57:36;97681.69;;;4.13;92.34
61109;BME280;46995;55.740;37.402;2023-12-20T03:00:01;97669.72;;;4.10;92.70
61109;BME280;46995;55.740;37.402;2023-12-20T03:02:27;97664.78;;;4.07;92.58
61109;BME280;46995;55.740;37.402;2023-12-20T03:04:53;97661.19;;;4.08;92.80
61109;BME280;46995;55.740;37.402;2023-12-20T03:07:19;97657.09;;;4.06;91.82
61109;BME280;46995;55.740;37.402;2023-12-20T03:09:45;97661.19;;;3.99;91.73
61109;BME280;46995;55.740;37.402;2023-12-20T03:12:11;97674.66;;;3.94;92.05
61109;BME280;46995;55.740;37.402;2023-12-20T03:14:36;97676.31;;;3.95;92.37
61109;BME280;46995;55.740;37.402;2023-12-20T03:17:02;97669.84;;;3.99;92.27
61109;BME280;46995;55.740;37.402;2023-12-20T03:19:28;97663.81;;;3.99;92.42
61109;BME280;46995;55.740;37.402;2023-12-20T03:21:56;97661.06;;;4.00;91.95
61109;BME280;46995;55.740;37.402;2023-12-20T03:24:22;97658.31;;;4.02;91.87
61109;BME280;46995;55.740;37.402;2023-12-20T03:26:47;97667.94;;;4.01;91.85
61109;BME280;46995;55.740;37.402;2023-12-20T03:29:13;97666.28;;;4.00;91.79
61109;BME280;46995;55.740;37.402;2023-12-20T03:31:40;97662.72;;;4.01;91.85
61109;BME280;46995;55.740;37.402;2023-12-20T03:34:08;97671.38;;;4.02;91.91
61109;BME280;46995;55.740;37.402;2023-12-20T03:36:34;97660.25;;;4.00;92.22
61109;BME280;46995;55.740;37.402;2023-12-20T03:39:00;97674.81;;;4.02;92.42
61109;BME280;46995;55.740;37.402;2023-12-20T03:41:26;97663.97;;;3.97;92.02
61109;BME280;46995;55.740;37.402;2023-12-20T03:43:51;97666.56;;;3.97;92.09
61109;BME280;46995;55.740;37.402;2023-12-20T03:46:17;97680.19;;;4.01;92.11
61109;BME280;46995;55.740;37.402;2023-12-20T03:48:43;97673.16;;;4.01;92.29
61109;BME280;46995;55.740;37.402;2023-12-20T03:51:09;97669.44;;;4.04;92.24
61109;BME280;46995;55.740;37.402;2023-12-20T03:53:38;97677.97;;;4.06;92.21
61109;BME280;46995;55.740;37.402;2023-12-20T03:56:06;97683.06;;;4.07;92.14
61109;BME280;46995;55.740;37.402;2023-12-20T03:58:31;97681.41;;;4.06;92.38
61109;BME280;46995;55.740;37.402;2023-12-20T04:00:57;97676.72;;;4.10;92.43
61109;BME280;46995;55.740;37.402;2023-12-20T04:03:23;97671.94;;;4.05;91.81
61109;BME280;46995;55.740;37.402;2023-12-20T04:05:48;97682.50;;;4.04;91.92
61109;BME280;46995;55.740;37.402;2023-12-20T04:08:14;97684.03;;;4.06;92.14
61109;BME280;46995;55.740;37.402;2023-12-20T04:10:39;97687.31;;;4.08;92.33
61109;BME280;46995;55.740;37.402;2023-12-20T04:13:05;97692.13;;;4.03;91.99
61109;BME280;46995;55.740;37.402;2023-12-20T04:15:32;97685.28;;;4.02;92.05
61109;BME280;46995;55.740;37.402;2023-12-20T04:17:57;97674.00;;;4.02;92.01
61109;BME280;46995;55.740;37.402;2023-12-20T04:20:23;97686.91;;;4.03;92.47
61109;BME280;46995;55.740;37.402;2023-12-20T04:22:49;97681.41;;;4.06;92.64
61109;BME280;46995;55.740;37.402;2023-12-20T04:25:14;97691.56;;;4.09;92.35
61109;BME280;46995;55.740;37.402;2023-12-20T04:27:40;97696.81;;;4.09;92.37
61109;BME280;46995;55.740;37.402;2023-12-20T04:30:05;97697.38;;;4.13;92.54
61109;BME280;46995;55.740;37.402;2023-12-20T04:32:34;97707.53;;;4.16;92.29
61109;BME280;46995;55.740;37.402;2023-12-20T04:35:00;97709.19;;;4.17;92.07
61109;BME280;46995;55.740;37.402;2023-12-20T04:37:25;97703.44;;;4.13;91.89
61109;BME280;46995;55.740;37.402;2023-12-20T04:39:51;97713.88;;;4.13;92.22
61109;BME280;46995;55.740;37.402;2023-12-20T04:42:17;97715.50;;;4.14;92.27
61109;BME280;46995;55.740;37.402;2023-12-20T04:44:42;97717.84;;;4.17;92.44
61109;BME280;46995;55.740;37.402;2023-12-20T04:47:11;97718.41;;;4.11;92.72
61109;BME280;46995;55.740;37.402;2023-12-20T04:49:37;97718.81;;;4.07;92.46
61109;BME280;46995;55.740;37.402;2023-12-20T04:52:02;97713.72;;;4.05;92.54
61109;BME280;46995;55.740;37.402;2023-12-20T04:54:28;97711.94;;;4.06;92.38
61109;BME280;46995;55.740;37.402;2023-12-20T04:56:54;97712.47;;;4.09;92.42
61109;BME280;46995;55.740;37.402;2023-12-20T04:59:19;97705.75;;;4.07;92.43
61109;BME280;46995;55.740;37.402;2023-12-20T05:01:45;97706.41;;;4.09;92.26
61109;BME280;46995;55.740;37.402;2023-12-20T05:04:10;97711.66;;;4.09;92.46
61109;BME280;46995;55.740;37.402;2023-12-20T05:06:36;97707.53;;;4.06;92.53
61109;BME280;46995;55.740;37.402;2023-12-20T05:09:02;97704.50;;;4.01;92.27
61109;BME280;46995;55.740;37.402;2023-12-20T05:11:27;97706.56;;;3.98;92.71
61109;BME280;46995;55.740;37.402;2023-12-20T05:13:53;97705.03;;;3.95;92.55
61109;BME280;46995;55.740;37.402;2023-12-20T05:16:18;97703.38;;;3.94;92.40
61109;BME280;46995;55.740;37.402;2023-12-20T05:18:45;97709.56;;;3.93;92.12
61109;BME280;46995;55.740;37.402;2023-12-20T05:21:11;97708.91;;;3.91;92.18
61109;BME280;46995;55.740;37.402;2023-12-20T05:23:36;97707.53;;;3.87;91.62
61109;BME280;46995;55.740;37.402;2023-12-20T05:26:02;97711.09;;;3.86;91.88
61109;BME280;46995;55.740;37.402;2023-12-20T05:28:28;97706.94;;;3.83;91.58
61109;BME280;46995;55.740;37.402;2023-12-20T05:30:53;97717.25;;;3.85;91.80
61109;BME280;46995;55.740;37.402;2023-12-20T05:33:19;97716.56;;;3.83;91.91
61109;BME280;46995;55.740;37.402;2023-12-20T05:35:45;97725.38;;;3.82;91.78
61109;BME280;46995;55.740;37.402;2023-12-20T05:38:10;97728.94;;;3.81;92.34
61109;BME280;46995;55.740;37.402;2023-12-20T05:40:36;97726.34;;;3.81;92.07
61109;BME280;46995;55.740;37.402;2023-12-20T05:43:02;97722.06;;;3.80;92.18
61109;BME280;46995;55.740;37.402;2023-12-20T05:45:28;97728.00;;;3.82;92.20
61109;BME280;46995;55.740;37.402;2023-12-20T05:47:53;97732.22;;;3.83;92.17
61109;BME280;46995;55.740;37.402;2023-12-20T05:50:19;97739.09;;;3.84;91.91
61109;BME280;46995;55.740;37.402;2023-12-20T05:52:44;97725.63;;;3.79;92.11
61109;BME280;46995;55.740;37.402;2023-12-20T05:55:10;97729.47;;;3.75;91.91
61109;BME280;46995;55.740;37.402;2023-12-20T05:57:36;97725.19;;;3.74;92.27
61109;BME280;46995;55.740;37.402;2023-12-20T06:00:01;97726.16;;;3.73;91.99
61109;BME280;46995;55.740;37.402;2023-12-20T06:02:37;97733.03;;;3.74;92.08
61109;BME280;46995;55.740;37.402;2023-12-20T06:05:05;97732.22;;;3.73;92.21
61109;BME280;46995;55.740;37.402;2023-12-20T06:07:31;97731.13;;;3.76;92.29
61109;BME280;46995;55.740;37.402;2023-12-20T06:09:57;97732.50;;;3.80;92.05
61109;BME280;46995;55.740;37.402;2023-12-20T06:12:22;97737.44;;;3.83;91.88
61109;BME280;46995;55.740;37.402;2023-12-20T06:14:49;97749.28;;;3.87;91.41
61109;BME280;46995;55.740;37.402;2023-12-20T06:17:15;97739.66;;;3.88;91.56
61109;BME280;46995;55.740;37.402;2023-12-20T06:19:41;97750.69;;;3.91;91.51
61109;BME280;46995;55.740;37.402;2023-12-20T06:22:09;97752.19;;;3.94;90.48
61109;BME280;46995;55.740;37.402;2023-12-20T06:24:36;97748.34;;;3.98;91.31
61109;BME280;46995;55.740;37.402;2023-12-20T06:27:01;97746.53;;;3.98;90.94
61109;BME280;46995;55.740;37.402;2023-12-20T06:29:27;97745.75;;;3.98;90.53
61109;BME280;46995;55.740;37.402;2023-12-20T06:31:53;97745.59;;;3.99;90.86
61109;BME280;46995;55.740;37.402;2023-12-20T06:34:31;97752.47;;;4.00;90.55
61109;BME280;46995;55.740;37.402;2023-12-20T06:36:59;97752.06;;;4.05;90.83
61109;BME280;46995;55.740;37.402;2023-12-20T06:39:25;97743.00;;;4.09;91.05
61109;BME280;46995;55.740;37.402;2023-12-20T06:41:51;97748.78;;;4.12;91.06
61109;BME280;46995;55.740;37.402;2023-12-20T06:44:16;97745.22;;;4.13;90.78
61109;BME280;46995;55.740;37.402;2023-12-20T06:46:42;97751.94;;;4.16;90.72
61109;BME280;46995;55.740;37.402;2023-12-20T06:49:08;97748.25;;;4.18;90.95
61109;BME280;46995;55.740;37.402;2023-12-20T06:51:34;97746.59;;;4.17;90.56
61109;BME280;46995;55.740;37.402;2023-12-20T06:53:59;97748.25;;;4.18;90.89
61109;BME280;46995;55.740;37.402;2023-12-20T06:56:25;97751.25;;;4.14;90.32
61109;BME280;46995;55.740;37.402;2023-12-20T06:58:51;97743.81;;;4.09;90.25
61109;BME280;46995;55.740;37.402;2023-12-20T07:01:16;97735.72;;;4.12;90.99
61109;BME280;46995;55.740;37.402;2023-12-20T07:03:42;97739.41;;;4.10;90.54
61109;BME280;46995;55.740;37.402;2023-12-20T07:06:08;97741.63;;;4.05;90.06
61109;BME280;46995;55.740;37.402;2023-12-20T07:08:33;97739.13;;;4.03;90.71
61109;BME280;46995;55.740;37.402;2023-12-20T07:10:59;97741.31;;;3.98;89.17
61109;BME280;46995;55.740;37.402;2023-12-20T07:13:25;97737.09;;;3.97;90.53
61109;BME280;46995;55.740;37.402;2023-12-20T07:15:51;97758.41;;;4.02;90.33
61109;BME280;46995;55.740;37.402;2023-12-20T07:18:16;97752.91;;;4.05;89.99
61109;BME280;46995;55.740;37.402;2023-12-20T07:20:42;97754.13;;;4.01;90.12
61109;BME280;46995;55.740;37.402;2023-12-20T07:23:08;97759.75;;;3.97;90.05
61109;BME280;46995;55.740;37.402;2023-12-20T07:25:34;97746.00;;;3.95;90.12
61109;BME280;46995;55.740;37.402;2023-12-20T07:28:00;97754.13;;;3.92;89.88
61109;BME280;46995;55.740;37.402;2023-12-20T07:30:26;97754.53;;;3.87;90.24
61109;BME280;46995;55.740;37.402;2023-12-20T07:32:52;97756.16;;;3.88;90.85
61109;BME280;46995;55.740;37.402;2023-12-20T07:35:18;97759.75;;;3.87;90.32
61109;BME280;46995;55.740;37.402;2023-12-20T07:38:02;97771.38;;;3.83;90.93
61109;BME280;46995;55.740;37.402;2023-12-20T07:40:28;97770.97;;;3.78;90.61
61109;BME280;46995;55.740;37.402;2023-12-20T07:42:54;97778.13;;;3.76;90.68
61109;BME280;46995;55.740;37.402;2023-12-20T07:45:21;97780.84;;;3.74;90.71
61109;BME280;46995;55.740;37.402;2023-12-20T07:47:46;97778.25;;;3.74;90.80
61109;BME280;46995;55.740;37.402;2023-12-20T07:50:12;97782.63;;;3.74;90.58
61109;BME280;46995;55.740;37.402;2023-12-20T07:52:38;97778.78;;;3.78;91.04
61109;BME280;46995;55.740;37.402;2023-12-20T07:55:03;97782.94;;;3.80;90.85
61109;BME280;46995;55.740;37.402;2023-12-20T07:57:29;97783.25;;;3.87;91.08
61109;BME280;46995;55.740;37.402;2023-12-20T07:59:56;97788.34;;;3.98;90.56
61109;BME280;46995;55.740;37.402;2023-12-20T08:02:21;97787.25;;;4.01;90.55
61109;BME280;46995;55.740;37.402;2023-12-20T08:04:53;97785.88;;;4.06;90.06
61109;BME280;46995;55.740;37.402;2023-12-20T08:07:18;97781.78;;;4.13;89.73
61109;BME280;46995;55.740;37.402;2023-12-20T08:09:47;97786.44;;;4.19;89.55
61109;BME280;46995;55.740;37.402;2023-12-20T08:12:15;97798.84;;;4.27;89.66
61109;BME280;46995;55.740;37.402;2023-12-20T08:14:42;97791.97;;;4.36;89.85
61109;BME280;46995;55.740;37.402;2023-12-20T08:17:08;97790.19;;;4.46;89.84
61109;BME280;46995;55.740;37.402;2023-12-20T08:19:34;97787.16;;;4.50;89.83
61109;BME280;46995;55.740;37.402;2023-12-20T08:22:00;97785.97;;;4.54;89.18
61109;BME280;46995;55.740;37.402;2023-12-20T08:24:29;97782.94;;;4.59;89.59
61109;BME280;46995;55.740;37.402;2023-12-20T08:26:55;97782.38;;;4.65;89.40
61109;BME280;46995;55.740;37.402;2023-12-20T08:29:20;97781.25;;;4.67;89.25
61109;BME280;46995;55.740;37.402;2023-12-20T08:31:52;97787.03;;;4.71;89.30
61109;BME280;46995;55.740;37.402;2023-12-20T08:34:22;97786.66;;;4.76;88.92
61109;BME280;46995;55.740;37.402;2023-12-20T08:36:49;97789.25;;;4.76;88.74
61109;BME280;46995;55.740;37.402;2023-12-20T08:39:15;97784.84;;;4.76;89.05
61109;BME280;46995;55.740;37.402;2023-12-20T08:41:41;97776.84;;;4.78;89.51
61109;BME280;46995;55.740;37.402;2023-12-20T08:44:09;97776.03;;;4.77;89.34
61109;BME280;46995;55.740;37.402;2023-12-20T08:46:35;97773.56;;;4.76;89.13
61109;BME280;46995;55.740;37.402;2023-12-20T08:49:22;97769.56;;;4.81;89.38
61109;BME280;46995;55.740;37.402;2023-12-20T08:52:06;97776.44;;;4.82;89.45
61109;BME280;46995;55.740;37.402;2023-12-20T08:54:35;97773.97;;;4.81;89.80
61109;BME280;46995;55.740;37.402;2023-12-20T08:57:00;97768.59;;;4.82;89.77
61109;BME280;46995;55.740;37.402;2023-12-20T08:59:38;97767.50;;;4.85;89.46
61109;BME280;46995;55.740;37.402;2023-12-20T09:02:07;97757.56;;;4.88;89.24
61109;BME280;46995;55.740;37.402;2023-12-20T09:40:52;97751.28;;;4.81;89.53
61109;BME280;46995;55.740;37.402;2023-12-20T09:43:19;97744.38;;;4.80;89.69
61109;BME280;46995;55.740;37.402;2023-12-20T09:45:46;97749.88;;;4.77;89.76
61109;BME280;46995;55.740;37.402;2023-12-20T09:48:12;97752.34;;;4.79;89.72
61109;BME280;46995;55.740;37.402;2023-12-20T09:50:40;97743.56;;;4.80;90.01
61109;BME280;46995;55.740;37.402;2023-12-20T09:53:08;97756.50;;;4.81;90.07
61109;BME280;46995;55.740;37.402;2023-12-20T09:55:39;97755.50;;;4.82;89.93
61109;BME280;46995;55.740;37.402;2023-12-20T09:58:06;97753.88;;;4.81;89.94
61109;BME280;46995;55.740;37.402;2023-12-20T10:00:36;97763.94;;;4.76;88.98
61109;BME280;46995;55.740;37.402;2023-12-20T10:03:04;97770.38;;;4.72;89.75
61109;BME280;46995;55.740;37.402;2023-12-20T10:05:32;97765.31;;;4.71;89.39
61109;BME280;46995;55.740;37.402;2023-12-20T10:07:58;97773.69;;;4.74;89.91
61109;BME280;46995;55.740;37.402;2023-12-20T10:10:24;97765.84;;;4.74;89.68
61109;BME280;46995;55.740;37.402;2023-12-20T10:13:03;97768.34;;;4.76;89.65
61109;BME280;46995;55.740;37.402;2023-12-20T10:15:29;97772.44;;;4.78;89.69
61109;BME280;46995;55.740;37.402;2023-12-20T10:17:57;97780.84;;;4.82;89.73
61109;BME280;46995;55.740;37.402;2023-12-20T10:20:23;97770.25;;;4.83;89.63
61109;BME280;46995;55.740;37.402;2023-12-20T10:22:49;97779.22;;;4.81;89.45
61109;BME280;46995;55.740;37.402;2023-12-20T10:25:15;97763.66;;;4.79;89.69
61109;BME280;46995;55.740;37.402;2023-12-20T10:27:41;97774.09;;;4.79;89.94
61109;BME280;46995;55.740;37.402;2023-12-20T10:30:07;97778.63;;;4.77;89.78
61109;BME280;46995;55.740;37.402;2023-12-20T10:32:32;97772.75;;;4.75;89.36
61109;BME280;46995;55.740;37.402;2023-12-20T10:34:58;97778.22;;;4.72;89.62
61109;BME280;46995;55.740;37.402;2023-12-20T10:37:24;97779.19;;;4.71;89.95
61109;BME280;46995;55.740;37.402;2023-12-20T10:39:51;97779.75;;;4.75;90.04
61109;BME280;46995;55.740;37.402;2023-12-20T10:42:21;97773.00;;;4.72;89.76
61109;BME280;46995;55.740;37.402;2023-12-20T10:44:47;97787.72;;;4.73;89.96
61109;BME280;46995;55.740;37.402;2023-12-20T10:47:13;97780.72;;;4.74;89.13
61109;BME280;46995;55.740;37.402;2023-12-20T10:49:38;97776.31;;;4.74;89.10
61109;BME280;46995;55.740;37.402;2023-12-20T10:52:11;97779.88;;;4.73;89.18
61109;BME280;46995;55.740;37.402;2023-12-20T10:54:37;97780.19;;;4.70;89.09
61109;BME280;46995;55.740;37.402;2023-12-20T10:57:06;97785.13;;;4.73;89.64
61109;BME280;46995;55.740;37.402;2023-12-20T10:59:38;97786.47;;;4.77;89.78
61109;BME280;46995;55.740;37.402;2023-12-20T11:02:05;97781.53;;;4.74;89.32
61109;BME280;46995;55.740;37.402;2023-12-20T11:04:48;97773.28;;;4.69;89.25
61109;BME280;46995;55.740;37.402;2023-12-20T11:07:28;97774.66;;;4.73;89.39
61109;BME280;46995;55.740;37.402;2023-12-20T11:10:09;97776.59;;;4.81;89.39
61109;BME280;46995;55.740;37.402;2023-12-20T11:12:41;97769.97;;;4.86;89.38
61109;BME280;46995;55.740;37.402;2023-12-20T11:15:11;97771.50;;;4.79;89.24
61109;BME280;46995;55.740;37.402;2023-12-20T11:17:38;97777.00;;;4.76;89.22
61109;BME280;46995;55.740;37.402;2023-12-20T11:20:06;97760.63;;;4.74;89.39
61109;BME280;46995;55.740;37.402;2023-12-20T11:22:32;97767.50;;;4.75;89.45
61109;BME280;46995;55.740;37.402;2023-12-20T11:25:08;97764.19;;;4.73;89.70
61109;BME280;46995;55.740;37.402;2023-12-20T11:27:35;97776.56;;;4.71;88.72
61109;BME280;46995;55.740;37.402;2023-12-20T11:30:02;97773.81;;;4.73;89.15
61109;BME280;46995;55.740;37.402;2023-12-20T11:32:28;97786.78;;;4.74;88.25
61109;BME280;46995;55.740;37.402;2023-12-20T11:35:01;97760.88;;;4.71;89.01
61109;BME280;46995;55.740;37.402;2023-12-20T11:37:31;97772.59;;;4.67;89.03
61109;BME280;46995;55.740;37.402;2023-12-20T11:40:05;97776.03;;;4.67;89.41
61109;BME280;46995;55.740;37.402;2023-12-20T11:42:44;97770.25;;;4.64;87.77
61109;BME280;46995;55.740;37.402;2023-12-20T11:45:11;97766.13;;;4.61;88.24
61109;BME280;46995;55.740;37.402;2023-12-20T11:47:37;97772.88;;;4.64;88.70
61109;BME280;46995;55.740;37.402;2023-12-20T11:50:03;97773.53;;;4.66;88.73
61109;BME280;46995;55.740;37.402;2023-12-20T11:52:30;97778.66;;;4.67;88.78
61109;BME280;46995;55.740;37.402;2023-12-20T11:54:57;97782.38;;;4.65;89.07
61109;BME280;46995;55.740;37.402;2023-12-20T11:57:22;97780.72;;;4.64;88.91
61109;BME280;46995;55.740;37.402;2023-12-20T11:59:48;97793.66;;;4.65;89.27
61109;BME280;46995;55.740;37.402;2023-12-20T12:02:14;97791.59;;;4.69;89.50
61109;BME280;46995;55.740;37.402;2023-12-20T12:04:43;97783.47;;;4.72;89.29
61109;BME280;46995;55.740;37.402;2023-12-20T12:07:09;97779.63;;;4.76;89.46
61109;BME280;46995;55.740;37.402;2023-12-20T12:09:35;97784.84;;;4.76;89.13
61109;BME280;46995;55.740;37.402;2023-12-20T12:12:00;97784.84;;;4.76;89.48
61109;BME280;46995;55.740;37.402;2023-12-20T12:14:26;97793.66;;;4.75;89.12
61109;BME280;46995;55.740;37.402;2023-12-20T12:16:52;97786.78;;;4.74;89.24
61109;BME280;46995;55.740;37.402;2023-12-20T12:19:22;97794.88;;;4.71;88.98
61109;BME280;46995;55.740;37.402;2023-12-20T12:22:03;97803.00;;;4.68;89.39
61109;BME280;46995;55.740;37.402;2023-12-20T12:24:33;97790.75;;;4.68;89.43
61109;BME280;46995;55.740;37.402;2023-12-20T12:26:59;97793.38;;;4.68;89.61
61109;BME280;46995;55.740;37.402;2023-12-20T12:29:24;97788.03;;;4.70;89.25
61109;BME280;46995;55.740;37.402;2023-12-20T12:31:50;97793.78;;;4.64;89.58
61109;BME280;46995;55.740;37.402;2023-12-20T12:34:17;97792.69;;;4.57;89.52
61109;BME280;46995;55.740;37.402;2023-12-20T12:36:43;97795.72;;;4.52;90.13
61109;BME280;46995;55.740;37.402;2023-12-20T12:39:24;97809.31;;;4.46;90.00
61109;BME280;46995;55.740;37.402;2023-12-20T12:41:53;97814.72;;;4.45;90.47
61109;BME280;46995;55.740;37.402;2023-12-20T12:44:42;97819.09;;;4.44;90.32
61109;BME280;46995;55.740;37.402;2023-12-20T12:47:17;97812.88;;;4.36;90.39
61109;BME280;46995;55.740;37.402;2023-12-20T12:49:43;97820.31;;;4.31;90.58
61109;BME280;46995;55.740;37.402;2023-12-20T12:52:09;97827.47;;;4.29;90.70
61109;BME280;46995;55.740;37.402;2023-12-20T12:54:35;97829.94;;;4.30;90.45
61109;BME280;46995;55.740;37.402;2023-12-20T12:57:01;97830.50;;;4.34;90.56
61109;BME280;46995;55.740;37.402;2023-12-20T12:59:27;97828.72;;;4.34;90.77
61109;BME280;46995;55.740;37.402;2023-12-20T13:01:53;97826.91;;;4.35;90.76
61109;BME280;46995;55.740;37.402;2023-12-20T13:04:18;97822.91;;;4.31;90.79
61109;BME280;46995;55.740;37.402;2023-12-20T13:06:44;97823.88;;;4.30;90.83
61109;BME280;46995;55.740;37.402;2023-12-20T13:09:10;97822.09;;;4.30;90.66
61109;BME280;46995;55.740;37.402;2023-12-20T13:11:35;97822.25;;;4.29;90.64
61109;BME280;46995;55.740;37.402;2023-12-20T13:14:01;97821.97;;;4.32;90.63
61109;BME280;46995;55.740;37.402;2023-12-20T13:16:26;97830.50;;;4.34;90.65
61109;BME280;46995;55.740;37.402;2023-12-20T13:18:52;97822.50;;;4.35;90.58
61109;BME280;46995;55.740;37.402;2023-12-20T13:21:18;97819.34;;;4.41;90.60
61109;BME280;46995;55.740;37.402;2023-12-20T13:23:43;97804.38;;;4.34;90.64
61109;BME280;46995;55.740;37.402;2023-12-20T13:26:09;97825.00;;;4.46;90.57
61109;BME280;46995;55.740;37.402;2023-12-20T13:28:34;97833.66;;;4.47;90.46
61109;BME280;46995;55.740;37.402;2023-12-20T13:31:03;97838.06;;;4.46;90.48
61109;BME280;46995;55.740;37.402;2023-12-20T13:33:29;97835.63;;;4.45;90.65
61109;BME280;46995;55.740;37.402;2023-12-20T13:35:54;97838.34;;;4.43;90.30
61109;BME280;46995;55.740;37.402;2023-12-20T13:38:21;97829.69;;;4.43;90.28